Time;durP1;ratioP1;P1;durP2;ratioP2;P2;SDS_P1;SDS_P2;PMS_P1;PMS_P2;Temp;Humidity;BMP_temperature;BMP_pressure;BME280_temperature;BME280_humidity;BME280_pressure;Samples;Min_cycle;Max_cycle;Signal;HPM_P1;HPM_P2
2024/03/24 00:01:04;;;;;;;0.82;0.40;;;;;;;4.71;100.00;92291.56;2093549;28;20024;-83
2024/03/24 00:02:05;;;;;;;0.30;0.30;;;;;;;4.93;100.00;92299.97;2096255;28;20500;-81
2024/03/24 00:03:06;;;;;;;0.30;0.30;;;;;;;5.05;100.00;92294.13;2099093;28;20081;-83
2024/03/24 00:04:07;;;;;;;0.90;0.40;;;;;;;4.92;100.00;92293.19;2096144;28;20650;-82
2024/03/24 00:05:08;;;;;;;0.57;0.40;;;;;;;4.88;100.00;92287.19;2096821;28;20024;-83
2024/03/24 00:06:09;;;;;;;0.50;0.40;;;;;;;4.91;100.00;92295.06;2096167;28;20043;-85
2024/03/24 00:07:10;;;;;;;0.57;0.40;;;;;;;4.97;100.00;92290.84;2088082;28;20024;-82
2024/03/24 00:08:11;;;;;;;0.65;0.40;;;;;;;4.70;100.00;92290.09;2087911;28;20025;-83
2024/03/24 00:09:12;;;;;;;0.43;0.40;;;;;;;4.64;100.00;92296.94;2097082;28;20421;-82
2024/03/24 00:10:13;;;;;;;0.60;0.40;;;;;;;4.88;100.00;92293.22;2096816;28;20107;-83
2024/03/24 00:11:15;;;;;;;0.50;0.50;;;;;;;4.96;100.00;92292.00;2088160;28;20640;-83
2024/03/24 00:12:16;;;;;;;0.60;0.60;;;;;;;4.99;100.00;92285.88;2098423;28;20031;-82
2024/03/24 00:13:17;;;;;;;0.70;0.50;;;;;;;4.86;100.00;92286.81;2104841;28;20465;-83
2024/03/24 00:14:18;;;;;;;0.35;0.32;;;;;;;4.86;100.00;92284.94;2096760;28;20025;-85
2024/03/24 00:15:19;;;;;;;0.40;0.40;;;;;;;4.83;100.00;92287.63;2096528;28;20027;-85
2024/03/24 00:16:20;;;;;;;0.40;0.32;;;;;;;4.90;100.00;92288.28;2096786;28;20791;-82
2024/03/24 00:17:24;;;;;;;1.27;0.40;;;;;;;4.62;100.00;92291.31;2091120;28;20033;-81
2024/03/24 00:18:25;;;;;;;1.30;0.50;;;;;;;4.48;100.00;92294.91;2100278;28;20026;-84
2024/03/24 00:19:26;;;;;;;0.38;0.38;;;;;;;4.57;100.00;92295.16;2112565;28;20100;-81
2024/03/24 00:20:27;;;;;;;0.50;0.50;;;;;;;4.81;100.00;92290.66;2104638;28;20112;-84
2024/03/24 00:21:28;;;;;;;1.92;0.50;;;;;;;4.70;100.00;92298.78;2089555;28;20036;-84
2024/03/24 00:22:29;;;;;;;0.40;0.35;;;;;;;4.75;100.00;92302.88;2100599;28;20027;-85
2024/03/24 00:23:30;;;;;;;0.40;0.40;;;;;;;4.82;100.00;92288.78;2102850;28;20016;-84
2024/03/24 00:24:31;;;;;;;0.63;0.40;;;;;;;4.69;100.00;92284.00;2104731;28;20051;-84
2024/03/24 00:25:33;;;;;;;0.50;0.50;;;;;;;4.82;100.00;92280.84;2098442;28;20027;-84
2024/03/24 00:26:34;;;;;;;0.70;0.40;;;;;;;4.69;100.00;92293.84;2104758;28;20019;-83
2024/03/24 00:27:35;;;;;;;0.32;0.32;;;;;;;4.74;100.00;92291.53;2096075;28;20156;-83
2024/03/24 00:28:36;;;;;;;0.43;0.40;;;;;;;4.73;100.00;92289.25;2094897;28;20037;-82
2024/03/24 00:29:37;;;;;;;0.50;0.40;;;;;;;4.88;100.00;92289.84;2089574;28;20557;-82
2024/03/24 00:30:38;;;;;;;0.50;0.20;;;;;;;4.89;100.00;92297.38;2097635;28;20032;-83
2024/03/24 00:31:39;;;;;;;0.30;0.30;;;;;;;4.95;100.00;92289.72;2105758;28;20123;-82
2024/03/24 00:32:40;;;;;;;0.52;0.40;;;;;;;4.76;100.00;92283.19;2101347;28;20020;-84
2024/03/24 00:33:41;;;;;;;0.52;0.40;;;;;;;4.92;100.00;92291.28;2106091;28;20032;-83
2024/03/24 00:34:42;;;;;;;0.40;0.40;;;;;;;4.60;100.00;92294.34;2105354;28;20050;-82
2024/03/24 00:35:43;;;;;;;0.63;0.40;;;;;;;4.87;100.00;92285.66;2089587;28;20037;-83
2024/03/24 00:36:44;;;;;;;0.93;0.40;;;;;;;5.03;100.00;92283.19;2106064;28;20039;-84
2024/03/24 00:37:45;;;;;;;0.45;0.38;;;;;;;5.09;100.00;92283.47;2098034;28;20107;-84
2024/03/24 00:38:48;;;;;;;0.43;0.30;;;;;;;5.15;100.00;92285.28;2097776;28;20037;-83
2024/03/24 00:39:59;;;;;;;0.55;0.40;;;;;;;5.12;100.00;92280.78;2099385;28;20401;-82
2024/03/24 00:41:00;;;;;;;0.32;0.30;;;;;;;4.80;100.00;92284.63;2095753;28;20146;-84
2024/03/24 00:42:01;;;;;;;0.30;0.30;;;;;;;4.84;100.00;92273.25;2095689;28;20054;-82
2024/03/24 00:43:02;;;;;;;0.30;0.30;;;;;;;5.01;100.00;92273.00;2089085;28;20036;-82
2024/03/24 00:44:03;;;;;;;0.30;0.30;;;;;;;4.78;100.00;92276.34;2106300;28;20020;-82
2024/03/24 00:45:05;;;;;;;0.70;0.35;;;;;;;4.78;100.00;92278.22;2106397;28;20465;-85
2024/03/24 00:46:06;;;;;;;0.30;0.30;;;;;;;5.19;100.00;92282.59;2102828;28;20023;-82
2024/03/24 00:47:07;;;;;;;0.52;0.30;;;;;;;5.11;100.00;92281.94;2106262;28;20077;-82
2024/03/24 00:48:08;;;;;;;0.68;0.40;;;;;;;5.36;100.00;92276.25;2092994;28;20017;-84
2024/03/24 00:49:09;;;;;;;0.75;0.30;;;;;;;5.30;100.00;92278.59;2093925;28;20033;-83
2024/03/24 00:50:12;;;;;;;0.28;0.28;;;;;;;5.38;100.00;92275.84;2105578;28;20027;-83
2024/03/24 00:51:14;;;;;;;0.40;0.40;;;;;;;5.40;100.00;92276.97;2099491;28;20051;-85
2024/03/24 00:52:15;;;;;;;0.52;0.40;;;;;;;5.26;100.00;92279.81;2095929;28;20016;-85
2024/03/24 00:53:16;;;;;;;0.30;0.30;;;;;;;5.26;100.00;92274.50;2098027;28;20021;-85
2024/03/24 00:54:17;;;;;;;0.65;0.50;;;;;;;5.22;100.00;92276.47;2097894;28;20024;-83
2024/03/24 00:55:18;;;;;;;0.40;0.40;;;;;;;4.94;100.00;92282.94;2089667;28;20032;-82
2024/03/24 00:56:19;;;;;;;0.30;0.30;;;;;;;5.11;100.00;92276.63;2098008;28;20021;-82
2024/03/24 00:57:21;;;;;;;0.30;0.30;;;;;;;5.28;100.00;92269.56;2097835;28;20021;-83
2024/03/24 00:58:22;;;;;;;0.20;0.20;;;;;;;4.89;100.00;92276.19;2091785;28;20016;-83
2024/03/24 00:59:23;;;;;;;0.65;0.30;;;;;;;5.08;100.00;92274.78;2092266;28;20023;-83
2024/03/24 01:00:24;;;;;;;0.88;0.30;;;;;;;5.06;100.00;92274.44;2086827;28;20029;-85
2024/03/24 01:01:26;;;;;;;0.30;0.30;;;;;;;5.03;100.00;92268.03;2089472;28;20017;-85
2024/03/24 01:02:27;;;;;;;0.30;0.30;;;;;;;4.76;100.00;92262.75;2089660;28;20028;-83
2024/03/24 01:03:28;;;;;;;0.50;0.30;;;;;;;4.96;100.00;92278.75;2098095;28;20496;-86
2024/03/24 01:04:29;;;;;;;0.70;0.40;;;;;;;4.79;100.00;92261.22;2108752;28;20023;-83
2024/03/24 01:05:29;;;;;;;0.55;0.38;;;;;;;4.80;100.00;92268.00;2105649;28;20119;-85
2024/03/24 01:06:31;;;;;;;1.05;0.30;;;;;;;4.96;100.00;92264.72;2089148;28;20025;-82
2024/03/24 01:07:32;;;;;;;0.50;0.30;;;;;;;4.81;100.00;92266.84;2088987;28;20116;-81
2024/03/24 01:08:34;;;;;;;0.30;0.30;;;;;;;4.80;100.00;92258.16;2097802;28;20048;-84
2024/03/24 01:09:35;;;;;;;0.30;0.30;;;;;;;4.97;100.00;92261.69;2095626;28;21366;-82
2024/03/24 01:10:37;;;;;;;0.95;0.40;;;;;;;4.75;100.00;92255.22;2097608;28;20028;-83
2024/03/24 01:11:38;;;;;;;0.20;0.20;;;;;;;4.57;100.00;92257.38;2097809;28;20028;-83
2024/03/24 01:12:39;;;;;;;0.30;0.30;;;;;;;4.86;100.00;92257.69;2103245;28;20047;-83
2024/03/24 01:13:40;;;;;;;0.40;0.40;;;;;;;4.86;100.00;92258.44;2095545;28;20033;-84
2024/03/24 01:14:41;;;;;;;0.30;0.30;;;;;;;4.69;100.00;92264.75;2105422;28;20028;-84
2024/03/24 01:15:46;;;;;;;0.43;0.40;;;;;;;4.70;100.00;92253.78;2114485;28;20050;-83
2024/03/24 01:16:47;;;;;;;0.38;0.38;;;;;;;4.88;100.00;92258.81;2113003;28;20519;-83
2024/03/24 01:17:48;;;;;;;1.20;0.30;;;;;;;5.01;100.00;92261.66;2105874;28;20102;-84
2024/03/24 01:18:49;;;;;;;1.02;0.50;;;;;;;4.87;100.00;92257.28;2089244;28;20513;-82
2024/03/24 01:19:51;;;;;;;0.30;0.30;;;;;;;4.66;100.00;92253.06;2089500;28;20048;-85
2024/03/24 01:20:52;;;;;;;1.95;0.40;;;;;;;4.71;100.00;92257.16;2089489;28;20773;-83
2024/03/24 01:21:53;;;;;;;0.52;0.30;;;;;;;4.92;100.00;92251.56;2089161;28;20040;-83
2024/03/24 01:22:54;;;;;;;1.05;0.32;;;;;;;4.81;100.00;92253.59;2089441;28;20032;-82
2024/03/24 01:23:56;;;;;;;0.52;0.35;;;;;;;4.75;100.00;92255.22;2097908;28;20100;-84
2024/03/24 01:24:57;;;;;;;0.85;0.50;;;;;;;4.71;100.00;92244.66;2107853;28;20019;-85
2024/03/24 01:25:58;;;;;;;0.73;0.30;;;;;;;4.65;100.00;92250.81;2089613;28;20057;-84
2024/03/24 01:26:59;;;;;;;0.30;0.30;;;;;;;4.61;100.00;92247.44;2095535;28;20028;-83
2024/03/24 01:28:00;;;;;;;0.38;0.30;;;;;;;4.57;100.00;92244.88;2095426;28;20090;-84
2024/03/24 01:29:01;;;;;;;0.30;0.30;;;;;;;4.54;100.00;92238.47;2108092;28;20032;-84
2024/03/24 01:30:03;;;;;;;0.40;0.40;;;;;;;4.43;100.00;92240.50;2114459;28;20027;-83
2024/03/24 01:31:04;;;;;;;0.30;0.30;;;;;;;4.32;100.00;92242.53;2106102;28;20077;-85
2024/03/24 01:32:06;;;;;;;0.80;0.40;;;;;;;4.59;100.00;92231.97;2098320;28;20354;-86
2024/03/24 01:33:07;;;;;;;0.75;0.32;;;;;;;4.78;100.00;92244.59;2090391;28;20498;-82
2024/03/24 01:34:08;;;;;;;0.22;0.22;;;;;;;4.89;100.00;92239.13;2088325;28;20108;-84
2024/03/24 01:35:10;;;;;;;0.30;0.30;;;;;;;4.66;100.00;92239.09;2090448;28;20024;-84
2024/03/24 01:36:12;;;;;;;1.10;0.30;;;;;;;4.42;100.00;92231.06;2089549;28;20330;-82
2024/03/24 01:37:13;;;;;;;0.40;0.40;;;;;;;4.20;100.00;92243.06;2089180;28;20032;-83
2024/03/24 01:38:14;;;;;;;0.30;0.30;;;;;;;4.28;100.00;92247.88;2097863;28;20039;-85
2024/03/24 01:39:15;;;;;;;0.35;0.35;;;;;;;4.42;100.00;92239.00;2098470;28;20027;-85
2024/03/24 01:40:16;;;;;;;0.25;0.25;;;;;;;4.48;100.00;92234.78;2093519;28;20024;-83
2024/03/24 01:41:17;;;;;;;0.50;0.40;;;;;;;4.70;100.00;92239.78;2091153;28;20025;-83
2024/03/24 01:42:18;;;;;;;0.65;0.30;;;;;;;4.66;100.00;92225.84;2089848;28;20485;-82
2024/03/24 01:43:19;;;;;;;0.40;0.40;;;;;;;4.65;100.00;92229.63;2106488;28;20026;-84
2024/03/24 01:44:20;;;;;;;0.40;0.40;;;;;;;4.61;100.00;92223.63;2106542;28;20024;-85
2024/03/24 01:45:21;;;;;;;0.40;0.40;;;;;;;4.62;100.00;92217.97;2098895;28;20179;-83
2024/03/24 01:46:23;;;;;;;0.40;0.40;;;;;;;4.60;100.00;92225.53;2097196;28;20056;-85
2024/03/24 01:47:24;;;;;;;0.85;0.30;;;;;;;4.62;100.00;92217.22;2097764;28;20170;-86
2024/03/24 01:48:25;;;;;;;0.40;0.40;;;;;;;4.74;100.00;92219.28;2097433;28;20069;-82
2024/03/24 01:49:26;;;;;;;0.82;0.50;;;;;;;4.62;100.00;92217.97;2098384;28;20024;-84
2024/03/24 01:50:28;;;;;;;0.30;0.30;;;;;;;4.57;100.00;92222.97;2099477;28;20024;-83
2024/03/24 01:51:34;;;;;;;1.13;0.50;;;;;;;4.89;100.00;92219.84;2105966;28;20686;-85
2024/03/24 01:52:35;;;;;;;0.65;0.50;;;;;;;5.01;100.00;92222.69;2110902;28;20373;-82
2024/03/24 01:53:37;;;;;;;0.30;0.30;;;;;;;5.01;100.00;92220.03;2097581;28;20025;-85
2024/03/24 01:54:39;;;;;;;0.30;0.30;;;;;;;4.99;100.00;92222.31;2097874;28;20505;-83
2024/03/24 01:55:40;;;;;;;0.82;0.45;;;;;;;5.19;100.00;92222.41;2090514;28;20056;-84
2024/03/24 01:56:44;;;;;;;0.43;0.30;;;;;;;4.95;100.00;92228.81;2101901;28;20024;-84
2024/03/24 01:57:45;;;;;;;0.85;0.30;;;;;;;5.15;100.00;92220.97;2108486;28;20020;-85
2024/03/24 01:58:46;;;;;;;1.55;0.40;;;;;;;5.12;100.00;92213.81;2103414;28;20024;-85
2024/03/24 01:59:50;;;;;;;0.40;0.40;;;;;;;4.74;100.00;92216.63;2090044;28;20029;-84
2024/03/24 02:00:51;;;;;;;1.35;0.40;;;;;;;4.44;100.00;92212.91;2097866;28;20091;-83
2024/03/24 02:01:52;;;;;;;0.40;0.40;;;;;;;4.64;100.00;92207.72;2098147;28;20020;-84
2024/03/24 02:02:53;;;;;;;0.40;0.40;;;;;;;4.76;100.00;92203.75;2088544;28;20048;-84
2024/03/24 02:03:54;;;;;;;1.35;0.38;;;;;;;4.82;100.00;92202.16;2097492;28;20051;-82
2024/03/24 02:04:55;;;;;;;0.30;0.30;;;;;;;4.64;100.00;92197.13;2104871;28;20031;-84
2024/03/24 02:05:59;;;;;;;0.30;0.30;;;;;;;4.59;100.00;92194.94;2099272;28;20426;-86
2024/03/24 02:07:00;;;;;;;0.30;0.30;;;;;;;4.53;100.00;92197.28;2105966;28;20492;-82
2024/03/24 02:08:02;;;;;;;0.30;0.30;;;;;;;4.78;100.00;92196.94;2105663;28;20034;-84
2024/03/24 02:09:03;;;;;;;0.43;0.32;;;;;;;4.55;100.00;92199.53;2105743;28;20028;-83
2024/03/24 02:10:05;;;;;;;0.40;0.40;;;;;;;4.79;100.00;92202.97;2089079;28;20025;-84
2024/03/24 02:11:06;;;;;;;0.30;0.30;;;;;;;4.59;100.00;92192.28;2087758;28;20040;-84
2024/03/24 02:12:07;;;;;;;0.55;0.40;;;;;;;4.61;100.00;92199.81;2089065;28;20547;-84
2024/03/24 02:13:08;;;;;;;0.40;0.30;;;;;;;4.51;100.00;92199.56;2089149;28;20032;-82
2024/03/24 02:14:09;;;;;;;0.30;0.30;;;;;;;4.61;100.00;92208.53;2089506;28;20382;-84
2024/03/24 02:15:12;;;;;;;0.85;0.32;;;;;;;4.84;100.00;92199.88;2105470;28;20070;-85
2024/03/24 02:16:17;;;;;;;0.40;0.32;;;;;;;4.75;100.00;92202.28;2111235;28;20024;-84
2024/03/24 02:17:18;;;;;;;0.35;0.35;;;;;;;4.38;100.00;92205.81;2102214;28;20029;-85
2024/03/24 02:18:19;;;;;;;0.80;0.40;;;;;;;4.55;100.00;92205.56;2100387;28;20012;-84
2024/03/24 02:19:20;;;;;;;0.30;0.30;;;;;;;4.46;100.00;92202.66;2099587;28;20090;-83
2024/03/24 02:20:21;;;;;;;0.30;0.30;;;;;;;4.54;100.00;92198.78;2109740;28;20039;-86
2024/03/24 02:21:22;;;;;;;0.30;0.30;;;;;;;4.58;100.00;92201.38;2108745;28;20027;-85
2024/03/24 02:22:23;;;;;;;0.75;0.30;;;;;;;4.64;100.00;92194.47;2098934;28;20026;-83
2024/03/24 02:23:24;;;;;;;0.40;0.30;;;;;;;4.52;100.00;92190.50;2109646;28;20511;-82
2024/03/24 02:24:25;;;;;;;0.90;0.40;;;;;;;4.72;100.00;92190.56;2101216;28;20020;-84
2024/03/24 02:27:37;;;;;;;0.30;0.30;;;;;;;2.94;100.00;92198.66;2143208;27;20129;-83
2024/03/24 02:28:38;;;;;;;0.30;0.30;;;;;;;3.09;100.00;92198.53;2128773;27;20601;-82
2024/03/24 02:29:39;;;;;;;0.30;0.30;;;;;;;3.14;100.00;92198.84;2111469;28;20042;-83
2024/03/24 02:30:40;;;;;;;0.90;0.40;;;;;;;3.14;100.00;92193.56;2115601;27;20428;-83
2024/03/24 02:31:41;;;;;;;0.30;0.30;;;;;;;3.13;100.00;92201.91;2115560;27;20032;-83
2024/03/24 02:32:45;;;;;;;0.82;0.30;;;;;;;3.18;100.00;92209.41;2128632;27;20076;-82
2024/03/24 02:33:47;;;;;;;0.55;0.30;;;;;;;3.27;100.00;92201.75;2125910;27;20027;-82
2024/03/24 02:34:50;;;;;;;0.40;0.30;;;;;;;3.15;100.00;92202.25;2108811;28;20043;-83
2024/03/24 02:35:52;;;;;;;0.95;0.38;;;;;;;3.03;100.00;92206.88;2118196;27;20023;-83
2024/03/24 02:37:01;;;;;;;0.63;0.30;;;;;;;2.94;100.00;92205.81;2116495;27;20027;-83
2024/03/24 02:38:03;;;;;;;1.10;0.20;;;;;;;3.17;100.00;92203.38;2108110;28;20544;-83
2024/03/24 02:39:08;;;;;;;0.30;0.30;;;;;;;3.15;100.00;92200.34;2101065;28;20024;-83
2024/03/24 02:40:12;;;;;;;0.57;0.30;;;;;;;2.97;100.00;92208.41;2105190;28;20031;-83
2024/03/24 02:41:16;;;;;;;0.55;0.40;;;;;;;2.94;100.00;92208.44;2103766;28;20432;-83
2024/03/24 02:42:19;;;;;;;0.30;0.30;;;;;;;3.05;100.00;92198.56;2116039;27;20392;-82
2024/03/24 02:43:23;;;;;;;0.95;0.30;;;;;;;2.90;100.00;92192.66;2116358;27;20480;-83
2024/03/24 02:44:27;;;;;;;0.43;0.40;;;;;;;2.89;100.00;92201.69;2117134;27;20045;-82
2024/03/24 02:45:28;;;;;;;0.30;0.30;;;;;;;2.86;100.00;92196.47;2117604;27;20031;-82
2024/03/24 02:46:34;;;;;;;0.30;0.30;;;;;;;2.93;100.00;92191.13;2111460;28;20024;-83
2024/03/24 02:47:37;;;;;;;0.88;0.30;;;;;;;2.92;100.00;92200.94;2104061;28;20432;-83
2024/03/24 02:48:43;;;;;;;0.50;0.30;;;;;;;2.95;100.00;92199.41;2101373;28;20463;-83
2024/03/24 02:49:48;;;;;;;0.40;0.38;;;;;;;2.89;100.00;92190.41;2100891;28;20024;-83
2024/03/24 02:50:53;;;;;;;0.40;0.40;;;;;;;2.86;100.00;92197.22;2070466;27;20071;-83
2024/03/24 02:51:56;;;;;;;0.20;0.20;;;;;;;2.96;100.00;92199.00;2027594;28;22253;-82
2024/03/24 02:55:25;;;;;;;0.57;0.30;;;;;;;3.02;100.00;92196.69;2059012;27;20123;-83
2024/03/24 02:58:23;;;;;;;1.10;0.30;;;;;;;3.12;100.00;92195.13;2076393;27;20665;-83
2024/03/24 03:01:28;;;;;;;0.50;0.35;;;;;;;2.90;100.00;92197.19;2076630;27;20812;-82
2024/03/24 03:04:28;;;;;;;0.20;0.20;;;;;;;3.19;100.00;92181.84;2109557;27;20122;-84
2024/03/24 03:07:27;;;;;;;1.52;0.38;;;;;;;3.14;100.00;92184.91;2126203;27;20452;-82
2024/03/24 03:21:15;;;;;;;0.68;0.40;;;;;;;2.98;100.00;92165.03;2125568;27;20023;-83
2024/03/24 03:24:13;;;;;;;1.00;0.38;;;;;;;2.85;100.00;92163.28;2118718;27;20034;-82
2024/03/24 03:27:12;;;;;;;0.47;0.32;;;;;;;3.07;100.00;92172.50;2117935;27;20119;-82
2024/03/24 03:30:36;;;;;;;0.40;0.35;;;;;;;3.14;100.00;92172.47;2116979;27;20027;-83
2024/03/24 03:33:37;;;;;;;0.40;0.32;;;;;;;3.06;100.00;92163.09;2125833;27;20047;-82
2024/03/24 03:34:38;;;;;;;0.82;0.50;;;;;;;3.21;100.00;92164.47;2107265;28;20459;-84
2024/03/24 03:35:46;;;;;;;0.40;0.40;;;;;;;3.31;100.00;92165.50;2099960;28;20075;-83
2024/03/24 03:36:47;;;;;;;0.82;0.40;;;;;;;3.07;100.00;92166.47;2110328;28;20027;-83
2024/03/24 03:37:48;;;;;;;0.77;0.40;;;;;;;3.11;100.00;92160.03;2111102;28;20035;-83
2024/03/24 03:38:52;;;;;;;0.40;0.40;;;;;;;3.15;100.00;92154.72;2089343;28;20106;-81
2024/03/24 03:39:53;;;;;;;0.40;0.40;;;;;;;2.99;100.00;92153.38;2094466;28;20460;-83
2024/03/24 03:40:59;;;;;;;0.40;0.40;;;;;;;3.06;100.00;92155.19;2103638;28;20051;-83
2024/03/24 03:42:00;;;;;;;0.40;0.40;;;;;;;3.36;100.00;92154.50;2070155;28;20234;-83
2024/03/24 03:43:06;;;;;;;0.35;0.30;;;;;;;3.32;100.00;92153.06;2024303;28;20035;-84
2024/03/24 03:44:20;;;;;;;0.30;0.30;;;;;;;3.21;100.00;92147.88;2027387;27;20033;-82
2024/03/24 03:45:58;;;;;;;0.88;0.43;;;;;;;3.44;100.00;92155.94;2021156;28;20032;-81
2024/03/24 03:46:59;;;;;;;0.30;0.30;;;;;;;3.28;100.00;92145.91;2020861;28;20092;-84
2024/03/24 03:48:00;;;;;;;1.05;0.40;;;;;;;3.47;100.00;92151.78;2041190;28;20035;-83
2024/03/24 03:49:01;;;;;;;0.82;0.43;;;;;;;3.33;100.00;92147.38;2043466;28;20697;-82
2024/03/24 03:50:02;;;;;;;0.30;0.30;;;;;;;3.34;100.00;92154.16;2033357;28;21341;-84
2024/03/24 03:51:16;;;;;;;0.88;0.40;;;;;;;3.13;100.00;92149.09;2034103;28;20085;-83
2024/03/24 03:52:29;;;;;;;0.32;0.32;;;;;;;3.07;100.00;92146.13;2044609;28;20089;-83
2024/03/24 03:53:36;;;;;;;1.98;0.30;;;;;;;2.95;100.00;92151.91;2044216;28;20056;-83
2024/03/24 03:54:37;;;;;;;0.40;0.40;;;;;;;3.11;100.00;92154.00;2045688;28;20132;-83
2024/03/24 03:55:39;;;;;;;1.85;0.68;;;;;;;3.13;100.00;92154.38;2048640;28;20146;-82
2024/03/24 03:56:40;;;;;;;0.63;0.30;;;;;;;3.39;100.00;92147.69;2066231;28;20048;-83
2024/03/24 03:57:42;;;;;;;0.80;0.60;;;;;;;3.31;100.00;92141.00;2070708;28;20493;-83
2024/03/24 03:58:54;;;;;;;1.55;0.40;;;;;;;3.26;100.00;92144.81;2084277;28;20056;-82
2024/03/24 03:59:57;;;;;;;2.17;0.40;;;;;;;3.26;100.00;92142.91;2085935;28;20033;-82
2024/03/24 04:00:58;;;;;;;0.30;0.30;;;;;;;3.17;100.00;92145.28;2096243;28;20024;-83
2024/03/24 04:01:59;;;;;;;1.38;0.30;;;;;;;2.93;100.00;92143.59;2095238;28;20034;-84
2024/03/24 04:03:00;;;;;;;2.92;0.32;;;;;;;3.13;100.00;92144.56;2088772;28;20232;-83
2024/03/24 04:04:02;;;;;;;1.17;0.32;;;;;;;3.16;100.00;92145.66;2087154;28;20060;-83
2024/03/24 04:05:05;;;;;;;0.40;0.40;;;;;;;2.91;100.00;92141.38;2088849;28;20032;-83
2024/03/24 04:06:07;;;;;;;1.35;0.40;;;;;;;2.86;100.00;92141.06;2097981;28;20587;-83
2024/03/24 04:07:10;;;;;;;2.03;0.55;;;;;;;2.86;100.00;92149.72;2096947;28;20024;-84
2024/03/24 04:08:11;;;;;;;1.77;0.43;;;;;;;2.94;100.00;92143.25;2101301;28;20473;-83
2024/03/24 04:09:16;;;;;;;0.45;0.40;;;;;;;2.89;100.00;92146.28;2101529;28;20020;-83
2024/03/24 04:10:19;;;;;;;1.38;0.52;;;;;;;2.84;100.00;92138.78;2095499;28;20431;-83
2024/03/24 04:11:24;;;;;;;1.60;0.30;;;;;;;2.90;100.00;92145.16;2095670;28;20069;-82
2024/03/24 04:12:27;;;;;;;0.82;0.38;;;;;;;2.92;100.00;92142.13;2096406;28;20039;-83
2024/03/24 04:13:28;;;;;;;0.40;0.40;;;;;;;2.82;100.00;92143.72;2087425;28;20110;-83
2024/03/24 04:14:29;;;;;;;0.30;0.30;;;;;;;2.96;100.00;92140.19;2094687;28;20028;-83
2024/03/24 04:15:30;;;;;;;0.30;0.30;;;;;;;3.02;100.00;92141.25;2099147;28;20028;-83
2024/03/24 04:16:31;;;;;;;1.05;0.80;;;;;;;3.10;100.00;92140.06;2102285;28;20067;-82
2024/03/24 04:17:32;;;;;;;0.47;0.40;;;;;;;3.12;100.00;92131.75;2096729;28;20028;-82
2024/03/24 04:18:36;;;;;;;0.35;0.35;;;;;;;3.13;100.00;92139.28;2093850;28;20485;-82
2024/03/24 04:19:39;;;;;;;0.45;0.40;;;;;;;3.01;100.00;92137.13;2103512;28;20100;-82
2024/03/24 04:20:42;;;;;;;0.50;0.30;;;;;;;2.78;100.00;92137.72;2104323;28;20094;-82
2024/03/24 04:21:47;;;;;;;0.93;0.30;;;;;;;2.76;100.00;92137.34;2092903;28;20025;-81
2024/03/24 04:22:51;;;;;;;1.13;0.35;;;;;;;2.54;100.00;92136.75;2095518;28;20123;-82
2024/03/24 04:23:54;;;;;;;0.45;0.30;;;;;;;2.74;100.00;92137.00;2098100;28;20092;-82
2024/03/24 04:24:55;;;;;;;1.15;0.40;;;;;;;2.61;100.00;92131.44;2088062;28;20092;-82
2024/03/24 04:25:57;;;;;;;0.38;0.30;;;;;;;2.71;100.00;92138.50;2086660;28;20036;-83
2024/03/24 04:26:58;;;;;;;0.52;0.35;;;;;;;2.84;100.00;92133.50;2100485;28;20043;-83
2024/03/24 04:27:59;;;;;;;0.30;0.30;;;;;;;2.82;100.00;92133.16;2096945;28;20044;-82
2024/03/24 04:29:00;;;;;;;1.33;1.08;;;;;;;2.75;100.00;92133.97;2111347;28;20052;-82
2024/03/24 04:30:04;;;;;;;0.30;0.30;;;;;;;2.94;100.00;92137.19;2102638;28;20031;-82
2024/03/24 04:31:08;;;;;;;0.63;0.35;;;;;;;2.89;100.00;92133.06;2104801;28;20543;-82
2024/03/24 04:32:12;;;;;;;0.30;0.30;;;;;;;2.97;100.00;92145.06;2097266;28;20028;-83
2024/03/24 04:33:12;;;;;;;0.60;0.40;;;;;;;2.98;100.00;92138.66;2097183;28;20103;-82
2024/03/24 04:34:13;;;;;;;1.02;0.45;;;;;;;2.98;100.00;92133.38;2088574;28;20082;-83
2024/03/24 04:35:14;;;;;;;0.85;0.43;;;;;;;2.96;100.00;92140.19;2088411;28;20030;-83
2024/03/24 04:36:15;;;;;;;0.63;0.40;;;;;;;3.14;100.00;92138.13;2105268;28;20034;-82
2024/03/24 04:37:16;;;;;;;2.05;0.50;;;;;;;2.94;100.00;92140.59;2105626;28;20016;-82
2024/03/24 04:38:18;;;;;;;0.60;0.50;;;;;;;3.04;100.00;92139.00;2104972;28;20063;-85
2024/03/24 04:40:08;;;;;;;0.40;0.40;;;;;;;3.02;100.00;92144.66;2097015;28;20032;-84
2024/03/24 04:41:14;;;;;;;0.22;0.22;;;;;;;2.97;100.00;92141.69;2091645;28;20024;-81
2024/03/24 04:42:18;;;;;;;0.82;0.30;;;;;;;3.20;100.00;92143.72;2091603;28;20374;-83
2024/03/24 04:43:20;;;;;;;0.88;0.38;;;;;;;3.26;100.00;92140.28;2087686;28;20435;-83
2024/03/24 04:44:23;;;;;;;0.90;0.32;;;;;;;3.32;100.00;92150.41;2108187;28;20032;-82
2024/03/24 04:45:32;;;;;;;0.30;0.30;;;;;;;3.14;100.00;92147.94;2117260;27;20096;-83
2024/03/24 04:46:35;;;;;;;0.43;0.40;;;;;;;3.18;100.00;92148.66;2095365;28;20056;-82
2024/03/24 04:47:38;;;;;;;0.95;0.45;;;;;;;3.25;100.00;92153.88;2095798;28;20028;-82
2024/03/24 04:48:48;;;;;;;0.85;0.43;;;;;;;3.13;100.00;92151.75;2100360;28;20034;-82
2024/03/24 04:49:49;;;;;;;0.70;0.40;;;;;;;3.12;100.00;92158.16;2102886;28;20020;-83
2024/03/24 04:50:50;;;;;;;0.40;0.30;;;;;;;3.16;100.00;92156.22;2100419;28;20121;-83
2024/03/24 04:51:52;;;;;;;0.30;0.30;;;;;;;3.27;100.00;92151.59;2096417;28;20086;-82
2024/03/24 04:53:24;;;;;;;0.50;0.30;;;;;;;3.44;100.00;92153.28;2096697;28;20111;-82
2024/03/24 04:54:26;;;;;;;0.55;0.40;;;;;;;3.37;100.00;92157.91;2113784;27;20019;-82
2024/03/24 04:55:28;;;;;;;0.40;0.30;;;;;;;3.35;100.00;92155.66;2116243;27;20050;-83
2024/03/24 04:56:29;;;;;;;0.30;0.30;;;;;;;3.60;100.00;92163.31;2109161;28;20035;-82
2024/03/24 04:57:30;;;;;;;0.40;0.40;;;;;;;3.55;100.00;92169.03;2095355;28;20032;-83
2024/03/24 04:58:40;;;;;;;0.47;0.30;;;;;;;3.54;100.00;92168.28;2088002;28;20029;-81
2024/03/24 04:59:41;;;;;;;0.40;0.40;;;;;;;3.25;100.00;92161.81;2110282;27;20489;-83
2024/03/24 05:00:43;;;;;;;0.30;0.30;;;;;;;3.24;100.00;92160.28;2107576;28;20114;-82
2024/03/24 05:01:44;;;;;;;0.40;0.30;;;;;;;3.02;100.00;92155.19;2088724;28;20410;-82
2024/03/24 05:02:46;;;;;;;0.35;0.35;;;;;;;3.13;100.00;92155.13;2086368;28;20125;-82
2024/03/24 05:03:49;;;;;;;0.35;0.35;;;;;;;3.00;100.00;92162.78;2103913;28;20028;-83
2024/03/24 05:05:03;;;;;;;0.28;0.28;;;;;;;2.88;100.00;92167.78;2102551;28;20073;-83
2024/03/24 05:06:05;;;;;;;0.47;0.40;;;;;;;2.99;100.00;92165.81;2088853;28;20390;-83
2024/03/24 05:07:06;;;;;;;0.38;0.20;;;;;;;3.21;100.00;92164.47;2088814;28;20060;-83
2024/03/24 05:08:10;;;;;;;0.43;0.30;;;;;;;3.09;100.00;92172.88;2096104;28;20386;-82
2024/03/24 05:09:16;;;;;;;0.57;0.40;;;;;;;3.08;100.00;92175.94;2103880;28;20444;-82
2024/03/24 05:10:18;;;;;;;0.30;0.30;;;;;;;3.03;100.00;92177.84;2103736;28;20039;-83
2024/03/24 05:11:19;;;;;;;0.20;0.20;;;;;;;3.06;100.00;92175.56;2096507;28;20056;-82
2024/03/24 05:12:29;;;;;;;0.30;0.30;;;;;;;3.06;100.00;92165.75;2086079;28;20381;-82
2024/03/24 05:13:30;;;;;;;0.30;0.30;;;;;;;2.97;100.00;92176.75;2095717;28;20567;-83
2024/03/24 05:14:36;;;;;;;0.30;0.30;;;;;;;2.86;100.00;92183.28;2096418;28;20130;-83
2024/03/24 05:15:37;;;;;;;0.40;0.40;;;;;;;3.01;100.00;92179.38;2090317;28;20123;-82
2024/03/24 05:16:38;;;;;;;0.30;0.30;;;;;;;2.92;100.00;92171.91;2090255;28;20519;-83
2024/03/24 05:17:44;;;;;;;0.30;0.30;;;;;;;3.09;100.00;92174.78;2087961;28;20772;-83
2024/03/24 05:18:45;;;;;;;1.20;0.40;;;;;;;2.94;100.00;92177.53;2093181;28;20033;-83
2024/03/24 05:19:46;;;;;;;0.20;0.20;;;;;;;2.83;100.00;92178.75;2096396;28;20103;-83
2024/03/24 05:20:47;;;;;;;1.05;0.30;;;;;;;2.85;100.00;92182.50;2094998;28;20036;-83
2024/03/24 05:21:48;;;;;;;0.35;0.20;;;;;;;3.02;100.00;92183.50;2098278;28;20101;-84
2024/03/24 05:22:51;;;;;;;0.25;0.25;;;;;;;3.11;100.00;92181.16;2110216;28;20323;-83
2024/03/24 05:23:55;;;;;;;0.30;0.20;;;;;;;3.15;100.00;92196.97;2095175;28;20483;-83
2024/03/24 05:24:58;;;;;;;0.20;0.20;;;;;;;3.09;100.00;92195.91;2095628;28;20094;-83
2024/03/24 05:25:59;;;;;;;0.20;0.20;;;;;;;3.17;100.00;92187.53;2087123;28;20115;-84
2024/03/24 05:27:08;;;;;;;0.30;0.30;;;;;;;3.03;100.00;92195.56;2089091;28;20051;-82
2024/03/24 05:28:11;;;;;;;1.63;0.43;;;;;;;3.14;100.00;92196.22;2086876;28;20442;-82
2024/03/24 05:29:12;;;;;;;0.60;0.30;;;;;;;3.07;100.00;92200.81;2085899;28;20112;-83